Disclaimer

Please do not use the information listed here in-flight or in-navigation, as they are not provided to us by the airports but are provided by volunteers, so they might be outdated.

Search


Regions


Airport information page

Radio informations:
RAIZET TWR - 118.4 MHz
Ground (GND) - 121.85 MHz
Automatic Terminal Information Service (ATIS) - 127.6 MHz
RAIZET APP - 121.3 MHz

Airport informations:
Latitude: 16° 15' 55.10" N
Longitude: 061° 31' 54.50" W
Elevation: 36 feet - 11 meters
Operating hours: N/A
Operating agency: Civil government, landing fees and diplomatic clearance may be required
Timezone: UTC-4
Fuel: Jet A1, without icing nhibitor.

100/130 MIL Spec, low lead, aviation gasoline (BLUE)

Runway information:
11/29 - 11499 x 148 feet< - >3505 x 45 meters

Recent METARs:
TFFR 191730Z AUTO 10012KT 9999 FEW029 BKN044 BKN052 29/24 Q1014 TEMPO 4000 SHRA BKN018TCU
TFFR 191800Z AUTO 10013KT 9999 FEW026 SCT031 BKN046 28/22 Q1013 TEMPO 4000 SHRA BKN018TCU
TFFR 191830Z AUTO 09012KT 9999 FEW034 SCT046 BKN052 28/23 Q1013 TEMPO 4000 SHRA BKN018TCU

Airport on the map: